SPLO

Ilo Airport

Ilo, Peru
TAF SPLO 211120Z 2112/2212 14005KT 9999 BKN022 TX19/2119Z TN15/2210Z TEMPO 2112/2114 5000 BR FM211700 18007KT 9999 SCT030 SCT120
Issued Valid From Valid To
Jul-21 @ 11:20 UTC
(11 hours ago)
Jul-21 @ 12:00 UTC
(11 hours ago)
Jul-22 @ 12:00 UTC
(in 13 hours)
Expired Click to View Jul-21 @ 12:00 to Jul-21 @ 17:00
TAF SPLO 211120Z 2112/2212 14005KT 9999 BKN022 TX19/2119Z TN15/2210Z
Wind Visibility Clouds
140° at 5 knots 10,000+ meters
  • Broken at 2,200' AGL
Expired Click to View Jul-21 @ 12:00 to Jul-21 @ 14:00
TEMPO 2112/2114 5000 BR
Visibility Conditions
5,005 meters
  • Mist
From Jul-21 @ 17:00 to Jul-22 @ 12:00
FM211700 18007KT 9999 SCT030 SCT120
Wind Visibility Clouds
180° at 7 knots 10,000+ meters
  • Scattered at 3,000' AGL
  • Scattered at 12,000' AGL
TAF SPLO 211120Z 2112/2212 14005KT 9999 BKN022 TX19/2119Z TN15/2210Z TEMPO 2112/2114 5000 BR FM211700 18007KT 9999 SCT030 SCT120
Issued Jul-21 @ 11:20 UTC
(11 hours ago)
Valid From Jul-21 @ 12:00 UTC
(11 hours ago)
Valid To Jul-22 @ 12:00 UTC
(in 13 hours)
Jul-21 @ 12:00 - Jul-21 @ 17:00
Wind Visibility
140° at 5 knots 10,000+ meters
Clouds
  • Broken at 2,200' AGL
Jul-21 @ 12:00 - Jul-21 @ 14:00
Conditions
  • Mist
From Jul-21 @ 17:00 - Jul-22 @ 12:00
Wind Visibility
180° at 7 knots 10,000+ meters
Clouds
  • Scattered at 3,000' AGL
  • Scattered at 12,000' AGL